KAMN

Gratiot Community Airport

Alma, Michigan, USA
METAR KAMN 181336Z AUTO 31005KT 10SM OVC021 M04/M08 A3010 RMK AO2 T10381077
Observed Flight Rules
Jan-18 @ 13:36 UTC (9 minutes ago) Marginal Visual Flight Rules
Wind Visibility Clouds
310° at 5 knots 10 miles
  • Overcast at 2,100' AGL
Temperatures Readings
Current -4°C / 25°F
Dewpoint -8°C / 18°F
Humidity 74%
Altimeter 30.1" Hg
Pressure 1019.32 hPa
Elevation 230
METAR KAMN 181336Z AUTO 31005KT 10SM OVC021 M04/M08 A3010 RMK AO2 T10381077
Observed Flight Rules
Jan-18 @ 13:36 UTC
(9 minutes ago)
MVFR
Wind Visibility
310° at 5 knots 10 miles
Clouds
  • Overcast at 2,100' AGL
Temperature Dewpoint
-4°C / 25°F -8°C / 18°F
Humidity Altimeter Pressure
74% 30.1" Hg 1019.32 hPa